Weather at Wysokie Mazowieckie Air Base [CLOSED]

Public forecast

Using degrees Celsius for public forecast. Weather courtesy of forecast.io.

Closest aviation weather report (METAR) to Wysokie Mazowieckie Air Base

Closest report is Olsztyn-Mazury Airport, 66.0 nm (122.2 km) WNW.

2024/06/16 22:30 (retrieved 19 minutes ago)

EPSY 162230Z 30003KT 260V340 9999 -RA BKN049 17/16 Q1012

Closest aviation forecast (TAF) to Wysokie Mazowieckie Air Base

Closest forecast is Warsaw Chopin Airport, 73.2 nm (135.5 km) SW.

2024/06/16 21:37 (retrieved 1 hour ago)

TAF EPWA 162030Z 1621/1721 29004KT 9999 SCT035 TEMPO 1621/1705 3000 BR BKN005 PROB40 1700/1704 0600 FG OVC002